Sidney, Texas
Current Conditions -  °F | °C
As of 4:15 PM on Friday 31 Oct 2014 (Local Time) from KMKN Reporting Station
Clear Clear  
Wind Chill: 67°   Ceiling: Unl
Heat Index: 67°   Visibility: 10mi
Dew Point: 39°   Wind: 10mph
Humidity: 36%   Direction: 10°N
Pressure: 30.3"   Gusts: NA
Location:  31.94°N, 98.74°W
Report Text: KMKN 312115Z AUTO 01009KT 10SM CLR 19/04 A3030 RMK AO2 T01940038
Loading
Personal Weather Stations






























Interactive Weather Map
Tropical Storm Tracking
New forecast layout! Learn more

10-Day Weather Forecast

Advertisements
Track Severe Weather on mobile